createdAt,value
2022-10-22T00:00:45.990Z,100197.23
2022-10-22T00:03:48.163Z,100203.88
2022-10-22T00:06:29.850Z,100207.50
2022-10-22T00:09:13.320Z,100204.80
2022-10-22T00:11:55.280Z,100204.13
2022-10-22T00:14:37.463Z,100204.84
2022-10-22T00:17:19.326Z,100202.02
2022-10-22T00:20:01.075Z,100204.70
2022-10-22T00:22:42.823Z,100204.86
2022-10-22T00:25:24.770Z,100196.21
2022-10-22T00:28:06.551Z,100190.16
2022-10-22T00:30:48.243Z,100180.98
2022-10-22T00:33:30.757Z,100174.26
2022-10-22T00:36:12.955Z,100176.17
2022-10-22T00:38:54.647Z,100175.41
2022-10-22T00:41:36.748Z,100169.30
2022-10-22T00:44:56.435Z,100165.59
2022-10-22T00:47:56.756Z,100169.71
2022-10-22T00:50:50.436Z,100173.22
2022-10-22T00:53:37.574Z,100171.95
2022-10-22T00:56:21.079Z,100169.91
2022-10-22T00:59:04.092Z,100170.38
2022-10-22T01:01:47.022Z,100173.05
2022-10-22T01:04:29.034Z,100170.98
2022-10-22T01:07:18.165Z,100167.80
2022-10-22T01:10:11.654Z,100156.44
2022-10-22T01:13:11.981Z,100150.88
2022-10-22T01:16:10.876Z,100147.95
2022-10-22T01:19:21.853Z,100141.49
2022-10-22T01:22:32.729Z,100131.52
2022-10-22T01:25:59.680Z,100134.92
2022-10-22T01:28:58.882Z,100143.91
2022-10-22T01:31:45.796Z,100143.61
2022-10-22T01:34:29.738Z,100148.58
2022-10-22T01:37:14.681Z,100145.59
2022-10-22T01:39:59.470Z,100146.62
2022-10-22T01:42:41.160Z,100147.55
2022-10-22T01:45:22.954Z,100146.70
2022-10-22T01:48:44.888Z,100143.38
2022-10-22T01:51:51.464Z,100141.09
2022-10-22T01:54:47.612Z,100139.27
2022-10-22T01:57:51.166Z,100140.28
2022-10-22T02:00:36.905Z,100133.96
2022-10-22T02:03:26.866Z,100134.23
2022-10-22T02:06:14.878Z,100142.12
2022-10-22T02:08:58.713Z,100151.42
2022-10-22T02:11:42.658Z,100156.14
2022-10-22T02:14:28.194Z,100156.79
2022-10-22T02:17:16.294Z,100153.52
2022-10-22T02:20:02.525Z,100150.02
2022-10-22T02:22:44.526Z,100139.87
2022-10-22T02:25:32.796Z,100137.61
2022-10-22T02:28:26.834Z,100125.06
2022-10-22T02:31:23.682Z,100118.27
2022-10-22T02:34:10.298Z,100126.73
2022-10-22T02:36:53.107Z,100129.75
2022-10-22T02:39:36.332Z,100127.96
2022-10-22T02:42:18.534Z,100128.58
2022-10-22T02:45:00.224Z,100136.55
2022-10-22T02:47:41.915Z,100135.49
2022-10-22T02:50:23.712Z,100142.20
2022-10-22T02:53:05.399Z,100150.37
2022-10-22T02:55:47.044Z,100161.23
2022-10-22T02:58:29.293Z,100169.32
2022-10-22T03:01:13.751Z,100168.16
2022-10-22T03:03:57.903Z,100165.73
2022-10-22T03:06:39.690Z,100168.92
2022-10-22T03:09:24.093Z,100168.72
2022-10-22T03:12:08.806Z,100158.52
2022-10-22T03:14:50.498Z,100155.80
2022-10-22T03:17:32.189Z,100157.16
2022-10-22T03:20:13.880Z,100147.85
2022-10-22T03:22:57.003Z,100139.90
2022-10-22T03:25:41.899Z,100137.24
2022-10-22T03:28:23.662Z,100137.80
2022-10-22T03:31:05.457Z,100140.02
2022-10-22T03:33:47.250Z,100143.61
2022-10-22T03:36:28.939Z,100151.25
2022-10-22T03:39:13.395Z,100148.08
2022-10-22T03:41:55.818Z,100154.17
2022-10-22T03:44:38.825Z,100156.13
2022-10-22T03:47:20.720Z,100169.58
2022-10-22T03:50:02.617Z,100178.23
2022-10-22T03:52:44.307Z,100182.36
2022-10-22T03:55:26.101Z,100176.27
2022-10-22T03:58:07.792Z,100174.63
2022-10-22T04:00:49.552Z,100168.02
2022-10-22T04:03:31.379Z,100164.55
2022-10-22T04:06:13.786Z,100163.85
2022-10-22T04:08:55.649Z,100161.78
2022-10-22T04:11:37.377Z,100161.70
2022-10-22T04:14:19.063Z,100162.30
2022-10-22T04:17:01.368Z,100164.44
2022-10-22T04:19:43.165Z,100163.35
2022-10-22T04:22:24.958Z,100163.13
2022-10-22T04:25:06.852Z,100161.00
2022-10-22T04:27:48.542Z,100158.84
2022-10-22T04:30:30.234Z,100152.08
2022-10-22T04:33:11.924Z,100143.14
2022-10-22T04:35:53.614Z,100150.09
2022-10-22T04:38:35.408Z,100151.91
2022-10-22T04:41:20.071Z,100151.61
2022-10-22T04:44:02.287Z,100142.04
2022-10-22T04:46:44.271Z,100147.61
2022-10-22T04:49:26.166Z,100151.58
2022-10-22T04:52:08.061Z,100155.70
2022-10-22T04:54:49.751Z,100165.90
2022-10-22T04:57:32.572Z,100174.45
2022-10-22T05:00:16.820Z,100178.52
2022-10-22T05:02:58.511Z,100161.64
2022-10-22T05:05:40.204Z,100162.96
2022-10-22T05:08:21.893Z,100172.98
2022-10-22T05:11:18.655Z,100178.02
2022-10-22T05:14:02.752Z,100176.95
2022-10-22T05:19:31.164Z,100172.91
2022-10-22T05:22:12.981Z,100174.14
2022-10-22T05:24:54.642Z,100174.27
2022-10-22T05:27:36.841Z,100172.64
2022-10-22T05:30:18.567Z,100172.91
2022-10-22T05:33:00.255Z,100174.23
2022-10-22T05:35:46.636Z,100179.34
2022-10-22T05:38:29.369Z,100186.59
2022-10-22T05:41:13.928Z,100194.58
2022-10-22T05:44:00.328Z,100196.04
2022-10-22T05:46:43.554Z,100198.83
2022-10-22T05:49:25.658Z,100202.60
2022-10-22T05:52:07.450Z,100204.82
2022-10-22T05:54:49.244Z,100209.86
2022-10-22T05:57:30.934Z,100210.89
2022-10-22T06:00:15.784Z,100210.62
2022-10-22T06:02:58.227Z,100209.89
2022-10-22T06:05:40.001Z,100209.27
2022-10-22T06:08:21.794Z,100207.99
2022-10-22T06:11:03.499Z,100207.59
2022-10-22T06:13:46.121Z,100203.55
2022-10-22T06:16:30.040Z,100209.52
2022-10-22T06:19:13.474Z,100217.64
2022-10-22T06:21:55.470Z,100219.36
2022-10-22T06:24:39.435Z,100219.21
2022-10-22T06:27:23.460Z,100224.06
2022-10-22T06:30:05.868Z,100226.45
2022-10-22T06:32:47.558Z,100229.48
2022-10-22T06:35:29.195Z,100227.84
2022-10-22T06:38:11.559Z,100230.45
2022-10-22T06:40:53.246Z,100237.91
2022-10-22T06:43:35.039Z,100236.69
2022-10-22T06:46:20.176Z,100235.00
2022-10-22T06:49:03.337Z,100242.23
2022-10-22T06:51:45.802Z,100240.49
2022-10-22T06:54:27.641Z,100241.98
2022-10-22T06:57:09.535Z,100240.88
2022-10-22T06:59:51.226Z,100237.29
2022-10-22T07:02:33.327Z,100235.80
2022-10-22T07:05:15.035Z,100240.21
2022-10-22T07:07:56.708Z,100247.70
2022-10-22T07:10:38.399Z,100259.77
2022-10-22T07:13:20.162Z,100262.02
2022-10-22T07:16:02.396Z,100260.26
2022-10-22T07:18:45.622Z,100262.17
2022-10-22T07:21:28.135Z,100267.19
2022-10-22T07:24:09.926Z,100264.88
2022-10-22T07:26:51.721Z,100263.92
2022-10-22T07:29:33.410Z,100266.70
2022-10-22T07:32:15.203Z,100266.31
2022-10-22T07:34:56.896Z,100266.42
2022-10-22T07:37:38.755Z,100273.86
2022-10-22T07:40:20.890Z,100282.27
2022-10-22T07:43:02.787Z,100280.09
2022-10-22T07:45:45.194Z,100277.27
2022-10-22T07:48:26.987Z,100274.64
2022-10-22T07:51:09.294Z,100283.02
2022-10-22T07:53:51.479Z,100286.69
2022-10-22T07:56:33.186Z,100284.44
2022-10-22T07:59:16.004Z,100283.41
2022-10-22T08:01:58.207Z,100283.98
2022-10-22T08:04:40.038Z,100285.91
2022-10-22T08:07:21.717Z,100281.37
2022-10-22T08:10:03.997Z,100279.83
2022-10-22T08:12:45.687Z,100282.52
2022-10-22T08:15:27.584Z,100281.45
2022-10-22T08:18:10.400Z,100285.50
2022-10-22T08:20:52.909Z,100293.65
2022-10-22T08:23:34.707Z,100292.29
2022-10-22T08:26:16.804Z,100293.91
2022-10-22T08:28:58.577Z,100293.88
2022-10-22T08:31:40.491Z,100295.52
2022-10-22T08:34:22.185Z,100300.40
2022-10-22T08:37:03.977Z,100301.86
2022-10-22T08:39:46.287Z,100299.82
2022-10-22T08:42:57.156Z,100305.08
2022-10-22T08:46:10.184Z,100303.40
2022-10-22T08:48:57.983Z,100301.48
2022-10-22T08:51:40.663Z,100301.34
2022-10-22T08:54:56.218Z,100299.77
2022-10-22T08:57:55.726Z,100300.55
2022-10-22T09:00:46.429Z,100296.96
2022-10-22T09:03:46.798Z,100297.73
2022-10-22T09:06:32.440Z,100298.16
2022-10-22T09:09:19.470Z,100298.73
2022-10-22T09:12:03.808Z,100300.23
2022-10-22T09:14:45.706Z,100298.80
2022-10-22T09:17:48.594Z,100302.33
2022-10-22T09:20:54.763Z,100302.95
2022-10-22T09:23:58.361Z,100304.25
2022-10-22T09:26:41.493Z,100307.49
2022-10-22T09:29:35.063Z,100306.69
2022-10-22T09:32:17.462Z,100305.00
2022-10-22T09:34:59.768Z,100301.63
2022-10-22T09:37:51.120Z,100297.19
2022-10-22T09:40:42.887Z,100296.48
2022-10-22T09:43:24.707Z,100293.72
2022-10-22T09:46:14.589Z,100298.02
2022-10-22T09:49:10.421Z,100307.60
2022-10-22T09:52:00.631Z,100312.96
2022-10-22T09:54:42.823Z,100315.55
2022-10-22T09:57:25.519Z,100326.75
2022-10-22T10:00:12.763Z,100330.37
2022-10-22T10:02:59.483Z,100327.42
2022-10-22T10:05:41.446Z,100330.61
2022-10-22T10:08:24.058Z,100329.75
2022-10-22T10:11:13.942Z,100332.78
2022-10-22T10:14:13.290Z,100342.58
2022-10-22T10:17:05.191Z,100344.97
2022-10-22T10:20:03.858Z,100345.27
2022-10-22T10:22:54.876Z,100345.27
2022-10-22T10:25:52.029Z,100342.14
2022-10-22T10:29:10.686Z,100345.40
2022-10-22T10:32:07.431Z,100349.80
2022-10-22T10:35:03.457Z,100349.17
2022-10-22T10:37:55.594Z,100347.99
2022-10-22T10:40:48.450Z,100345.20
2022-10-22T10:43:45.316Z,100347.09
2022-10-22T10:46:39.011Z,100345.02
2022-10-22T10:49:27.227Z,100345.20
2022-10-22T10:52:28.970Z,100347.70
2022-10-22T10:55:22.647Z,100343.38
2022-10-22T10:58:23.481Z,100337.57
2022-10-22T11:01:24.758Z,100335.36
2022-10-22T11:04:14.511Z,100336.58
2022-10-22T11:07:11.001Z,100333.14
2022-10-22T11:10:10.354Z,100334.73
2022-10-22T11:12:56.345Z,100333.23
2022-10-22T11:15:45.474Z,100332.50
2022-10-22T11:18:42.256Z,100328.81
2022-10-22T11:21:40.045Z,100325.50
2022-10-22T11:24:34.469Z,100321.92
2022-10-22T11:28:09.142Z,100313.00
2022-10-22T11:31:11.464Z,100306.59
2022-10-22T11:34:34.253Z,100304.17
2022-10-22T11:37:22.281Z,100306.56
2022-10-22T11:40:16.751Z,100311.66
2022-10-22T11:43:06.144Z,100312.02
2022-10-22T11:45:51.049Z,100311.61
2022-10-22T11:48:39.987Z,100310.02
2022-10-22T11:51:36.518Z,100313.34
2022-10-22T11:54:44.247Z,100313.38
2022-10-22T11:57:36.074Z,100313.67
2022-10-22T12:00:41.749Z,100316.97
2022-10-22T12:03:44.725Z,100315.32
2022-10-22T12:06:50.636Z,100312.13
2022-10-22T12:09:38.460Z,100310.10
2022-10-22T12:12:21.668Z,100311.91
2022-10-22T12:15:25.855Z,100312.18
2022-10-22T12:18:07.622Z,100314.52
2022-10-22T12:20:52.616Z,100317.61
2022-10-22T12:23:35.741Z,100314.23
2022-10-22T12:26:27.729Z,100311.73
2022-10-22T12:29:13.171Z,100310.54
2022-10-22T12:31:56.070Z,100304.40
2022-10-22T12:34:46.001Z,100307.44
2022-10-22T12:37:30.290Z,100306.84
2022-10-22T12:40:25.979Z,100307.60
2022-10-22T12:43:12.634Z,100305.96
2022-10-22T12:45:55.386Z,100304.05
2022-10-22T12:48:40.469Z,100307.02
2022-10-22T12:51:22.498Z,100305.67
2022-10-22T12:54:10.733Z,100305.72
2022-10-22T12:56:53.888Z,100301.59
2022-10-22T12:59:38.623Z,100302.04
2022-10-22T13:02:24.759Z,100305.11
2022-10-22T13:05:27.314Z,100300.02
2022-10-22T13:08:11.951Z,100300.02
2022-10-22T13:10:55.214Z,100300.35
2022-10-22T13:13:36.940Z,100304.23
2022-10-22T13:16:24.862Z,100308.95
2022-10-22T13:19:36.268Z,100305.48
2022-10-22T13:22:35.365Z,100310.42
2022-10-22T13:25:17.427Z,100312.76
2022-10-22T13:28:02.569Z,100317.30
2022-10-22T13:30:59.548Z,100317.20
2022-10-22T13:33:46.754Z,100316.23
2022-10-22T13:36:29.102Z,100315.36
2022-10-22T13:39:20.905Z,100313.09
2022-10-22T13:42:03.005Z,100316.66
2022-10-22T13:44:45.422Z,100326.31
2022-10-22T13:47:30.072Z,100325.17
2022-10-22T13:50:18.879Z,100326.59
2022-10-22T13:53:01.337Z,100326.90
2022-10-22T13:55:45.283Z,100326.02
2022-10-22T13:58:27.588Z,100325.08
2022-10-22T14:01:22.856Z,100327.58
2022-10-22T14:04:08.197Z,100324.32
2022-10-22T14:06:49.965Z,100328.11
2022-10-22T14:09:31.967Z,100328.98
2022-10-22T14:12:16.969Z,100330.17
2022-10-22T14:14:58.953Z,100332.80
2022-10-22T14:17:43.462Z,100332.30
2022-10-22T14:20:29.888Z,100337.74
2022-10-22T14:23:20.086Z,100340.15
2022-10-22T14:26:03.205Z,100335.30
2022-10-22T14:29:07.953Z,100337.84
2022-10-22T14:31:47.682Z,100340.33
2022-10-22T14:34:29.371Z,100349.99
2022-10-22T14:37:21.104Z,100352.69
2022-10-22T14:40:03.411Z,100355.50
2022-10-22T14:42:47.757Z,100352.29
2022-10-22T14:45:29.856Z,100344.84
2022-10-22T14:48:11.504Z,100351.61
2022-10-22T14:50:54.672Z,100350.29
2022-10-22T14:53:36.876Z,100353.88
2022-10-22T14:56:21.576Z,100357.08
2022-10-22T14:59:03.430Z,100354.88
2022-10-22T15:01:45.122Z,100359.55
2022-10-22T15:04:28.334Z,100359.41
2022-10-22T15:07:10.038Z,100362.04
2022-10-22T15:09:51.936Z,100362.44
2022-10-22T15:12:33.935Z,100365.47
2022-10-22T15:15:17.333Z,100364.63
2022-10-22T15:18:01.105Z,100365.75
2022-10-22T15:20:42.896Z,100369.81
2022-10-22T15:23:24.895Z,100370.64
2022-10-22T15:26:08.224Z,100374.81
2022-10-22T15:28:50.635Z,100381.69
2022-10-22T15:31:49.842Z,100377.07
2022-10-22T15:34:34.085Z,100378.40
2022-10-22T15:37:15.775Z,100384.30
2022-10-22T15:39:57.779Z,100385.64
2022-10-22T15:42:39.804Z,100386.52
2022-10-22T15:45:22.912Z,100388.48
2022-10-22T15:48:05.304Z,100387.81
2022-10-22T15:50:46.995Z,100389.05
2022-10-22T15:53:28.686Z,100393.05
2022-10-22T15:56:12.119Z,100399.42
2022-10-22T15:58:59.137Z,100406.19
2022-10-22T16:01:41.290Z,100403.05
2022-10-22T16:04:23.010Z,100409.77
2022-10-22T16:07:04.703Z,100410.84
2022-10-22T16:09:46.410Z,100415.08
2022-10-22T16:12:28.206Z,100421.32
2022-10-22T16:15:10.508Z,100423.73
2022-10-22T16:17:52.302Z,100422.47
2022-10-22T16:20:39.419Z,100430.21
2022-10-22T16:23:21.212Z,100432.00
2022-10-22T16:26:03.007Z,100435.33
2022-10-22T16:28:46.099Z,100434.95
2022-10-22T16:31:28.145Z,100439.21
2022-10-22T16:34:09.921Z,100437.86
2022-10-22T16:36:53.794Z,100441.02
2022-10-22T16:39:36.376Z,100444.77
2022-10-22T16:42:18.171Z,100444.16
2022-10-22T16:45:00.177Z,100444.54
2022-10-22T16:47:43.299Z,100446.27
2022-10-22T16:50:40.112Z,100453.11
2022-10-22T16:53:21.855Z,100456.99
2022-10-22T16:56:03.746Z,100458.45
2022-10-22T16:58:47.953Z,100464.08
2022-10-22T17:01:30.044Z,100471.21
2022-10-22T17:04:11.868Z,100470.24
2022-10-22T17:06:53.559Z,100469.44
2022-10-22T17:09:35.362Z,100471.81
2022-10-22T17:12:17.146Z,100474.40
2022-10-22T17:14:58.836Z,100476.86
2022-10-22T17:17:40.939Z,100479.65
2022-10-22T17:20:23.857Z,100481.65
2022-10-22T17:23:05.754Z,100483.83
2022-10-22T17:25:47.443Z,100487.45
2022-10-22T17:28:30.159Z,100486.72
2022-10-22T17:31:18.435Z,100487.77
2022-10-22T17:34:00.340Z,100486.45
2022-10-22T17:36:43.013Z,100489.97
2022-10-22T17:39:25.013Z,100487.81
2022-10-22T17:42:07.011Z,100492.55
2022-10-22T17:44:48.906Z,100495.65
2022-10-22T17:47:31.313Z,100502.13
2022-10-22T17:50:13.450Z,100497.64
2022-10-22T17:52:55.515Z,100500.53
2022-10-22T17:55:38.128Z,100504.36
2022-10-22T17:58:20.330Z,100504.16
2022-10-22T18:01:03.293Z,100509.55
2022-10-22T18:03:45.453Z,100512.58
2022-10-22T18:06:29.205Z,100511.63
2022-10-22T18:09:17.222Z,100515.27
2022-10-22T18:12:00.669Z,100515.39
2022-10-22T18:14:42.354Z,100518.59
2022-10-22T18:17:24.659Z,100519.92
2022-10-22T18:20:07.169Z,100521.07
2022-10-22T18:22:49.168Z,100526.17
2022-10-22T18:25:32.181Z,100528.71
2022-10-22T18:28:19.663Z,100531.24
2022-10-22T18:31:07.292Z,100532.00
2022-10-22T18:33:49.964Z,100534.72
2022-10-22T18:36:32.267Z,100534.83
2022-10-22T18:39:15.696Z,100539.30
2022-10-22T18:41:57.387Z,100541.48
2022-10-22T18:44:39.231Z,100535.50
2022-10-22T18:47:24.050Z,100532.80
2022-10-22T18:50:07.099Z,100536.42
2022-10-22T18:52:49.373Z,100540.62
2022-10-22T18:55:31.444Z,100539.86
2022-10-22T18:58:13.168Z,100540.73
2022-10-22T19:00:54.882Z,100545.09
2022-10-22T19:03:36.854Z,100549.52
2022-10-22T19:06:26.740Z,100546.79
2022-10-22T19:09:09.285Z,100548.95
2022-10-22T19:11:51.145Z,100553.73
2022-10-22T19:14:33.244Z,100557.63
2022-10-22T19:17:14.934Z,100563.14
2022-10-22T19:19:56.579Z,100565.02
2022-10-22T19:22:38.622Z,100569.30
2022-10-22T19:25:20.314Z,100572.25
2022-10-22T19:28:02.004Z,100575.94
2022-10-22T19:30:44.830Z,100580.06
2022-10-22T19:33:27.847Z,100585.45
2022-10-22T19:36:12.433Z,100587.31
2022-10-22T19:38:54.400Z,100587.34
2022-10-22T19:41:36.398Z,100587.15
2022-10-22T19:44:18.505Z,100588.17
2022-10-22T19:47:00.151Z,100590.64
2022-10-22T19:49:42.668Z,100592.46
2022-10-22T19:52:24.395Z,100599.95
2022-10-22T19:55:07.004Z,100603.48
2022-10-22T19:57:48.882Z,100604.66
2022-10-22T20:00:32.233Z,100610.08
2022-10-22T20:03:15.046Z,100612.07
2022-10-22T20:05:56.689Z,100615.95
2022-10-22T20:08:39.434Z,100617.33
2022-10-22T20:11:25.571Z,100620.27
2022-10-22T20:14:07.652Z,100623.08
2022-10-22T20:16:49.337Z,100624.95
2022-10-22T20:19:32.769Z,100626.02
2022-10-22T20:22:17.811Z,100626.90
2022-10-22T20:25:00.759Z,100628.05
2022-10-22T20:27:42.865Z,100629.36
2022-10-22T20:30:24.654Z,100634.65
2022-10-22T20:33:06.298Z,100639.10
2022-10-22T20:35:58.480Z,100638.23
2022-10-22T20:38:40.275Z,100631.67
2022-10-22T20:41:23.194Z,100638.27
2022-10-22T20:44:04.986Z,100634.02
2022-10-22T20:46:46.759Z,100637.54
2022-10-22T20:49:28.789Z,100636.40
2022-10-22T20:52:11.319Z,100634.52
2022-10-22T20:54:52.980Z,100637.57
2022-10-22T20:57:34.669Z,100640.61
2022-10-22T21:00:17.819Z,100642.61
2022-10-22T21:02:59.505Z,100645.42
2022-10-22T21:05:41.689Z,100644.52
2022-10-22T21:08:23.480Z,100645.33
2022-10-22T21:11:05.585Z,100644.69
2022-10-22T21:13:47.378Z,100647.99
2022-10-22T21:16:36.525Z,100647.11
2022-10-22T21:19:20.039Z,100648.27
2022-10-22T21:22:04.816Z,100650.98
2022-10-22T21:24:57.190Z,100647.89
2022-10-22T21:27:45.077Z,100650.08
2022-10-22T21:30:30.391Z,100653.43
2022-10-22T21:33:14.832Z,100653.41
2022-10-22T21:35:59.830Z,100657.52
2022-10-22T21:38:43.757Z,100656.68
2022-10-22T21:41:27.273Z,100661.33
2022-10-22T21:44:13.709Z,100659.48
2022-10-22T21:46:57.589Z,100658.10
2022-10-22T21:49:42.861Z,100661.58
2022-10-22T21:52:28.061Z,100663.77
2022-10-22T21:55:14.009Z,100664.61
2022-10-22T21:58:04.981Z,100673.02
2022-10-22T22:00:56.276Z,100672.48
2022-10-22T22:03:44.483Z,100674.13
2022-10-22T22:06:33.337Z,100671.38
2022-10-22T22:09:17.606Z,100674.07
2022-10-22T22:12:01.255Z,100670.50
2022-10-22T22:14:46.119Z,100671.02
2022-10-22T22:17:31.010Z,100670.99
2022-10-22T22:20:15.746Z,100674.29
2022-10-22T22:22:59.991Z,100674.54
2022-10-22T22:25:44.762Z,100685.42
2022-10-22T22:28:31.126Z,100689.77
2022-10-22T22:31:18.656Z,100689.89
2022-10-22T22:34:04.563Z,100695.23
2022-10-22T22:36:48.497Z,100695.79
2022-10-22T22:39:35.592Z,100697.67
2022-10-22T22:42:18.817Z,100696.69
2022-10-22T22:45:02.082Z,100701.34
2022-10-22T22:47:48.129Z,100700.94
2022-10-22T22:50:40.517Z,100704.58
2022-10-22T22:53:24.748Z,100703.11
2022-10-22T22:56:12.662Z,100702.27
2022-10-22T22:58:55.433Z,100696.00
2022-10-22T23:01:38.798Z,100692.75
2022-10-22T23:04:24.043Z,100696.14
2022-10-22T23:07:05.670Z,100695.96
2022-10-22T23:09:47.411Z,100699.51
2022-10-22T23:12:29.438Z,100700.73
2022-10-22T23:15:11.990Z,100700.48
2022-10-22T23:17:55.907Z,100704.50
2022-10-22T23:20:38.724Z,100706.63
2022-10-22T23:23:20.519Z,100699.93
2022-10-22T23:26:02.826Z,100700.43
2022-10-22T23:28:45.128Z,100703.95
2022-10-22T23:31:26.923Z,100703.27
2022-10-22T23:34:10.980Z,100704.64
2022-10-22T23:36:53.579Z,100705.51
2022-10-22T23:39:35.579Z,100702.67
2022-10-22T23:42:17.373Z,100708.54
2022-10-22T23:44:59.061Z,100707.11
2022-10-22T23:47:40.908Z,100705.99
2022-10-22T23:50:22.963Z,100708.92
2022-10-22T23:53:05.159Z,100709.79
2022-10-22T23:55:46.952Z,100710.03
2022-10-22T23:58:28.643Z,100710.77
